Terminal Aerodrome Forecast
Issued by NWS

Home | Current Version | Previous Version | Text Only | Print | Product List | Glossary On
Versions: 1 2 3 4 5 6 7 8 9 10 11 12 13 14 15 16 17 18 19 20 21 22
000
FTUS43 KGRR 191700
TAFAZO
TAF
KAZO 191740Z 1918/2018 10011G22KT P6SM SCT080 BKN200
     FM192100 11011G20KT P6SM -RA OVC035
     FM192300 11014G24KT 4SM -RA BR OVC015
     FM200200 11014G24KT 2SM RA BR OVC005
     FM200600 20012G21KT 4SM -RA BR OVC003
     FM201100 22013G23KT 4SM -RA BR OVC006=

USA.gov is the U.S. government's official web portal to all federal, state and local government web resources and services.